createdAt,value
2019-05-16T00:01:35.275Z,98876.77
2019-05-16T00:04:01.897Z,98873.70
2019-05-16T00:06:28.530Z,98868.02
2019-05-16T00:08:58.610Z,98872.39
2019-05-16T00:11:25.265Z,98869.34
2019-05-16T00:13:51.722Z,98860.16
2019-05-16T00:16:18.906Z,98857.53
2019-05-16T00:18:47.774Z,98857.97
2019-05-16T00:21:13.845Z,98851.86
2019-05-16T00:23:40.588Z,98854.89
2019-05-16T00:26:07.828Z,98849.66
2019-05-16T00:28:34.437Z,98847.05
2019-05-16T00:31:01.948Z,98849.69
2019-05-16T00:33:28.758Z,98844.49
2019-05-16T00:36:02.669Z,98841.42
2019-05-16T00:38:23.648Z,98838.84
2019-05-16T00:40:50.116Z,98838.02
2019-05-16T00:43:18.382Z,98834.58
2019-05-16T00:45:44.976Z,98840.72
2019-05-16T00:48:11.721Z,98829.84
2019-05-16T00:50:38.784Z,98829.38
2019-05-16T00:53:05.563Z,98828.48
2019-05-16T00:55:32.418Z,98826.33
2019-05-16T00:57:59.310Z,98826.34
2019-05-16T01:00:51.290Z,98821.12
2019-05-16T01:03:20.305Z,98828.98
2019-05-16T01:05:48.064Z,98826.34
2019-05-16T01:08:15.048Z,98820.22
2019-05-16T01:10:41.631Z,98814.59
2019-05-16T01:13:09.270Z,98813.74
2019-05-16T01:15:38.022Z,98812.45
2019-05-16T01:18:04.595Z,98810.70
2019-05-16T01:20:31.118Z,98806.80
2019-05-16T01:22:58.188Z,98802.91
2019-05-16T01:25:28.135Z,98811.17
2019-05-16T01:27:54.563Z,98804.63
2019-05-16T01:30:21.588Z,98806.38
2019-05-16T01:32:49.157Z,98799.83
2019-05-16T01:35:15.931Z,98794.17
2019-05-16T01:37:42.395Z,98792.42
2019-05-16T01:40:09.098Z,98783.28
2019-05-16T01:42:35.776Z,98783.36
2019-05-16T01:45:02.430Z,98778.60
2019-05-16T01:47:29.034Z,98780.36
2019-05-16T01:49:55.481Z,98776.02
2019-05-16T01:52:21.993Z,98775.16
2019-05-16T01:54:48.725Z,98773.00
2019-05-16T01:57:15.233Z,98771.72
2019-05-16T01:59:41.802Z,98767.80
2019-05-16T02:02:08.519Z,98765.61
2019-05-16T02:04:35.291Z,98759.96
2019-05-16T02:07:02.007Z,98762.09
2019-05-16T02:09:28.498Z,98753.38
2019-05-16T02:11:55.217Z,98759.94
2019-05-16T02:14:21.743Z,98752.52
2019-05-16T02:16:48.229Z,98749.08
2019-05-16T02:19:14.676Z,98742.14
2019-05-16T02:21:41.277Z,98749.96
2019-05-16T02:24:08.844Z,98744.73
2019-05-16T02:26:35.725Z,98744.72
2019-05-16T02:29:02.171Z,98742.13
2019-05-16T02:31:31.369Z,98736.90
2019-05-16T02:33:57.117Z,98744.77
2019-05-16T02:36:23.631Z,98733.00
2019-05-16T02:38:51.521Z,98737.82
2019-05-16T02:41:21.619Z,98732.14
2019-05-16T02:43:47.196Z,98736.93
2019-05-16T02:46:13.734Z,98731.69
2019-05-16T02:48:40.985Z,98729.08
2019-05-16T02:51:10.841Z,98722.14
2019-05-16T02:53:37.045Z,98728.69
2019-05-16T02:56:03.642Z,98724.31
2019-05-16T02:58:30.849Z,98723.87
2019-05-16T03:00:57.427Z,98722.57
2019-05-16T03:03:23.985Z,98723.89
2019-05-16T03:05:51.210Z,98722.11
2019-05-16T03:08:21.016Z,98719.98
2019-05-16T03:10:47.703Z,98712.57
2019-05-16T03:13:14.398Z,98713.44
2019-05-16T03:15:42.135Z,98706.52
2019-05-16T03:18:11.442Z,98714.34
2019-05-16T03:20:40.563Z,98706.92
2019-05-16T03:23:06.977Z,98707.78
2019-05-16T03:25:33.462Z,98708.66
2019-05-16T03:28:01.987Z,98704.74
2019-05-16T03:30:34.203Z,98704.71
2019-05-16T03:33:04.893Z,98695.55
2019-05-16T03:35:34.246Z,98694.75
2019-05-16T03:38:01.437Z,98691.70
2019-05-16T03:40:26.766Z,98691.70
2019-05-16T03:42:53.643Z,98686.89
2019-05-16T03:45:21.226Z,98683.84
2019-05-16T03:47:50.838Z,98686.91
2019-05-16T03:50:16.401Z,98680.38
2019-05-16T03:52:43.931Z,98685.60
2019-05-16T03:55:11.684Z,98676.87
2019-05-16T03:57:41.303Z,98682.55
2019-05-16T04:00:11.399Z,98675.16
2019-05-16T04:02:36.403Z,98679.48
2019-05-16T04:05:03.139Z,98680.75
2019-05-16T04:07:31.707Z,98676.83
2019-05-16T04:10:02.319Z,98682.07
2019-05-16T04:12:30.667Z,98681.14
2019-05-16T04:14:57.299Z,98685.49
2019-05-16T04:17:23.891Z,98675.04
2019-05-16T04:19:50.963Z,98671.12
2019-05-16T04:22:21.257Z,98668.48
2019-05-16T04:24:46.393Z,98663.25
2019-05-16T04:27:12.896Z,98657.56
2019-05-16T04:29:40.826Z,98660.23
2019-05-16T04:32:10.926Z,98669.39
2019-05-16T04:34:36.124Z,98666.38
2019-05-16T04:37:02.750Z,98661.11
2019-05-16T04:39:31.861Z,98661.13
2019-05-16T04:41:57.757Z,98660.70
2019-05-16T04:44:24.370Z,98661.13
2019-05-16T04:46:51.375Z,98661.97
2019-05-16T04:49:20.976Z,98658.95
2019-05-16T04:51:47.361Z,98650.68
2019-05-16T04:54:13.824Z,98647.11
2019-05-16T04:56:41.231Z,98645.38
2019-05-16T04:59:15.622Z,98637.52
2019-05-16T05:01:36.340Z,98632.71
2019-05-16T05:04:10.749Z,98643.55
2019-05-16T05:06:31.811Z,98632.67
2019-05-16T05:09:02.953Z,98629.16
2019-05-16T05:11:26.679Z,98626.98
2019-05-16T05:13:53.463Z,98622.64
2019-05-16T05:16:20.427Z,98623.48
2019-05-16T05:18:47.103Z,98621.68
2019-05-16T05:21:13.550Z,98621.67
2019-05-16T05:23:40.805Z,98620.71
2019-05-16T05:26:07.415Z,98613.63
2019-05-16T05:28:33.919Z,98611.43
2019-05-16T05:31:00.383Z,98617.08
2019-05-16T05:33:27.149Z,98608.75
2019-05-16T05:35:53.822Z,98609.98
2019-05-16T05:38:21.820Z,98602.48
2019-05-16T05:40:50.736Z,98593.25
2019-05-16T05:43:16.847Z,98590.48
2019-05-16T05:45:43.598Z,98596.58
2019-05-16T05:48:10.836Z,98596.14
2019-05-16T05:50:37.306Z,98593.48
2019-05-16T05:53:04.004Z,98598.52
2019-05-16T05:55:31.316Z,98596.83
2019-05-16T05:57:58.014Z,98594.66
2019-05-16T06:00:24.619Z,98592.06
2019-05-16T06:02:51.246Z,98596.73
2019-05-16T06:05:20.212Z,98590.97
2019-05-16T06:07:46.454Z,98592.70
2019-05-16T06:10:13.096Z,98594.91
2019-05-16T06:12:40.897Z,98595.96
2019-05-16T06:15:10.051Z,98589.83
2019-05-16T06:17:40.011Z,98589.93
2019-05-16T06:20:06.235Z,98592.50
2019-05-16T06:22:32.931Z,98595.58
2019-05-16T06:25:01.162Z,98586.02
2019-05-16T06:27:30.035Z,98585.54
2019-05-16T06:29:57.499Z,98589.47
2019-05-16T06:32:24.128Z,98593.89
2019-05-16T06:34:50.937Z,98589.03
2019-05-16T06:37:20.314Z,98586.01
2019-05-16T06:39:46.144Z,98585.08
2019-05-16T06:42:13.087Z,98581.49
2019-05-16T06:44:40.235Z,98585.80
2019-05-16T06:47:16.883Z,98577.78
2019-05-16T06:49:35.782Z,98586.05
2019-05-16T06:52:02.566Z,98577.95
2019-05-16T06:54:31.637Z,98579.99
2019-05-16T06:57:00.161Z,98578.98
2019-05-16T06:59:26.777Z,98581.62
2019-05-16T07:01:53.236Z,98578.98
2019-05-16T07:04:20.174Z,98579.53
2019-05-16T07:06:56.268Z,98571.95
2019-05-16T07:09:15.527Z,98572.94
2019-05-16T07:11:43.039Z,98572.55
2019-05-16T07:14:10.538Z,98569.81
2019-05-16T07:16:40.316Z,98568.44
2019-05-16T07:19:06.666Z,98570.59
2019-05-16T07:21:33.268Z,98571.75
2019-05-16T07:24:00.224Z,98570.16
2019-05-16T07:26:26.729Z,98566.44
2019-05-16T07:28:53.249Z,98563.83
2019-05-16T07:31:22.456Z,98560.86
2019-05-16T07:33:50.274Z,98562.52
2019-05-16T07:36:16.928Z,98560.96
2019-05-16T07:38:43.440Z,98557.48
2019-05-16T07:41:11.168Z,98553.16
2019-05-16T07:43:40.085Z,98546.22
2019-05-16T07:46:11.259Z,98546.26
2019-05-16T07:48:40.153Z,98547.89
2019-05-16T07:51:06.379Z,98549.67
2019-05-16T07:53:33.327Z,98539.46
2019-05-16T07:56:00.176Z,98535.50
2019-05-16T07:58:26.954Z,98533.32
2019-05-16T08:01:02.673Z,98528.63
2019-05-16T08:03:23.508Z,98524.80
2019-05-16T08:05:51.264Z,98527.42
2019-05-16T08:08:23.415Z,98518.69
2019-05-16T08:10:47.085Z,98511.30
2019-05-16T08:13:13.531Z,98518.86
2019-05-16T08:15:40.772Z,98519.73
2019-05-16T08:18:11.053Z,98523.28
2019-05-16T08:20:37.066Z,98518.06
2019-05-16T08:23:03.805Z,98513.72
2019-05-16T08:25:31.333Z,98511.17
2019-05-16T08:28:00.556Z,98514.66
2019-05-16T08:30:26.340Z,98509.80
2019-05-16T08:32:53.847Z,98508.05
2019-05-16T08:35:21.222Z,98500.02
2019-05-16T08:37:51.088Z,98499.09
2019-05-16T08:40:16.883Z,98497.59
2019-05-16T08:42:43.556Z,98505.33
2019-05-16T08:45:12.419Z,98496.97
2019-05-16T08:47:42.310Z,98495.90
2019-05-16T08:50:14.230Z,98497.66
2019-05-16T08:52:37.907Z,98493.14
2019-05-16T08:55:05.037Z,98494.87
2019-05-16T08:57:33.254Z,98490.81
2019-05-16T09:00:01.326Z,98488.41
2019-05-16T09:02:35.753Z,98480.47
2019-05-16T09:04:57.035Z,98477.57
2019-05-16T09:07:23.767Z,98476.47
2019-05-16T09:09:52.157Z,98477.73
2019-05-16T09:12:19.026Z,98476.84
2019-05-16T09:14:48.038Z,98475.30
2019-05-16T09:17:13.892Z,98474.89
2019-05-16T09:19:40.612Z,98470.99
2019-05-16T09:22:07.459Z,98472.33
2019-05-16T09:24:34.300Z,98473.22
2019-05-16T09:27:00.977Z,98467.55
2019-05-16T09:29:27.635Z,98464.90
2019-05-16T09:32:08.074Z,98464.55
2019-05-16T09:34:22.594Z,98461.05
2019-05-16T09:36:49.108Z,98468.95
2019-05-16T09:39:17.069Z,98466.75
2019-05-16T09:41:53.169Z,98464.20
2019-05-16T09:44:12.169Z,98464.61
2019-05-16T09:46:38.973Z,98462.30
2019-05-16T09:49:16.949Z,98462.77
2019-05-16T09:51:33.970Z,98460.50
2019-05-16T09:54:00.843Z,98463.52
2019-05-16T09:56:27.535Z,98466.77
2019-05-16T09:58:54.168Z,98469.44
2019-05-16T10:01:20.679Z,98470.75
2019-05-16T10:03:47.969Z,98466.87
2019-05-16T10:06:18.718Z,98460.25
2019-05-16T10:08:46.316Z,98466.77
2019-05-16T10:11:13.854Z,98457.20
2019-05-16T10:13:40.367Z,98455.98
2019-05-16T10:16:07.345Z,98450.23
2019-05-16T10:18:36.837Z,98441.55
2019-05-16T10:21:02.718Z,98438.96
2019-05-16T10:23:29.156Z,98434.94
2019-05-16T10:25:56.776Z,98438.87
2019-05-16T10:28:23.458Z,98450.23
2019-05-16T10:30:50.345Z,98450.08
2019-05-16T10:33:18.782Z,98453.45
2019-05-16T10:35:47.943Z,98440.38
2019-05-16T10:38:13.794Z,98433.37
2019-05-16T10:40:40.234Z,98429.25
2019-05-16T10:43:07.514Z,98433.30
2019-05-16T10:45:34.082Z,98437.22
2019-05-16T10:48:00.738Z,98433.13
2019-05-16T10:50:27.690Z,98439.13
2019-05-16T10:53:20.424Z,98432.22
2019-05-16T10:55:22.947Z,98430.91
2019-05-16T10:57:49.585Z,98426.98
2019-05-16T11:00:42.365Z,98425.28
2019-05-16T11:02:49.056Z,98421.84
2019-05-16T11:05:29.563Z,98423.91
2019-05-16T11:07:44.419Z,98421.83
2019-05-16T11:10:11.672Z,98420.91
2019-05-16T11:12:50.694Z,98416.52
2019-05-16T11:15:11.169Z,98413.95
2019-05-16T11:17:37.288Z,98415.87
2019-05-16T11:20:04.237Z,98407.59
2019-05-16T11:22:30.982Z,98412.38
2019-05-16T11:24:58.475Z,98409.45
2019-05-16T11:27:25.070Z,98407.09
2019-05-16T11:29:51.519Z,98400.66
2019-05-16T11:32:18.215Z,98401.42
2019-05-16T11:34:44.759Z,98397.41
2019-05-16T11:37:11.440Z,98400.81
2019-05-16T11:39:37.935Z,98387.14
2019-05-16T11:42:04.558Z,98386.35
2019-05-16T11:44:32.185Z,98382.18
2019-05-16T11:46:58.694Z,98374.86
2019-05-16T11:49:27.418Z,98379.77
2019-05-16T11:51:53.915Z,98374.86
2019-05-16T11:54:20.373Z,98380.94
2019-05-16T11:56:47.135Z,98376.63
2019-05-16T11:59:13.814Z,98374.59
2019-05-16T12:01:40.331Z,98376.23
2019-05-16T12:04:08.081Z,98377.63
2019-05-16T12:06:34.534Z,98373.86
2019-05-16T12:09:01.873Z,98377.42
2019-05-16T12:11:29.415Z,98367.73
2019-05-16T12:13:56.743Z,98366.81
2019-05-16T12:16:23.581Z,98366.39
2019-05-16T12:18:50.037Z,98372.19
2019-05-16T12:21:17.246Z,98358.61
2019-05-16T12:23:47.128Z,98361.93
2019-05-16T12:26:12.925Z,98361.56
2019-05-16T12:28:39.403Z,98354.45
2019-05-16T12:31:07.193Z,98360.17
2019-05-16T12:33:36.994Z,98358.05
2019-05-16T12:36:02.807Z,98359.70
2019-05-16T12:38:29.548Z,98358.05
2019-05-16T12:40:56.565Z,98355.36
2019-05-16T12:43:23.038Z,98355.28
2019-05-16T12:45:49.753Z,98351.28
2019-05-16T12:48:20.283Z,98353.83
2019-05-16T12:50:48.149Z,98348.45
2019-05-16T12:53:14.193Z,98349.65
2019-05-16T12:55:40.662Z,98343.11
2019-05-16T12:58:15.671Z,98341.36
2019-05-16T13:00:37.108Z,98339.36
2019-05-16T13:03:06.968Z,98336.67
2019-05-16T13:05:33.071Z,98332.80
2019-05-16T13:07:59.849Z,98328.95
2019-05-16T13:10:26.990Z,98326.33
2019-05-16T13:12:57.720Z,98323.73
2019-05-16T13:15:23.331Z,98323.77
2019-05-16T13:17:49.781Z,98322.84
2019-05-16T13:20:17.279Z,98321.16
2019-05-16T13:22:44.065Z,98314.67
2019-05-16T13:25:10.634Z,98316.74
2019-05-16T13:27:37.732Z,98314.47
2019-05-16T13:30:07.220Z,98321.09
2019-05-16T13:32:33.124Z,98317.73
2019-05-16T13:34:59.639Z,98315.53
2019-05-16T13:37:27.598Z,98315.91
2019-05-16T13:39:56.813Z,98312.47
2019-05-16T13:42:23.858Z,98311.86
2019-05-16T13:44:50.321Z,98307.61
2019-05-16T13:47:17.348Z,98306.27
2019-05-16T13:49:45.036Z,98303.65
2019-05-16T13:52:11.530Z,98296.52
2019-05-16T13:54:38.069Z,98294.63
2019-05-16T13:57:06.908Z,98292.31
2019-05-16T13:59:33.373Z,98295.27
2019-05-16T14:02:00.071Z,98289.55
2019-05-16T14:04:26.799Z,98287.34
2019-05-16T14:06:55.627Z,98287.67
2019-05-16T14:09:21.930Z,98283.89
2019-05-16T14:11:48.382Z,98273.38
2019-05-16T14:14:25.504Z,98272.48
2019-05-16T14:16:43.916Z,98277.61
2019-05-16T14:19:10.658Z,98275.96
2019-05-16T14:21:37.164Z,98283.17
2019-05-16T14:24:03.840Z,98281.34
2019-05-16T14:26:30.330Z,98282.66
2019-05-16T14:28:57.622Z,98282.96
2019-05-16T14:31:24.639Z,98275.55
2019-05-16T14:33:51.385Z,98285.80
2019-05-16T14:36:17.971Z,98278.20
2019-05-16T14:38:46.725Z,98282.47
2019-05-16T14:41:12.856Z,98273.08
2019-05-16T14:43:39.352Z,98265.92
2019-05-16T14:46:09.291Z,98265.48
2019-05-16T14:48:36.771Z,98262.52
2019-05-16T14:51:03.365Z,98264.66
2019-05-16T14:53:29.927Z,98262.15
2019-05-16T14:55:57.669Z,98260.09
2019-05-16T14:58:30.343Z,98268.43
2019-05-16T15:00:53.347Z,98261.09
2019-05-16T15:03:19.830Z,98251.55
2019-05-16T15:05:47.993Z,98257.64
2019-05-16T15:08:17.945Z,98255.13
2019-05-16T15:10:43.339Z,98254.17
2019-05-16T15:13:09.921Z,98265.84
2019-05-16T15:15:37.690Z,98260.68
2019-05-16T15:18:07.753Z,98260.89
2019-05-16T15:20:33.185Z,98258.27
2019-05-16T15:22:59.933Z,98260.34
2019-05-16T15:25:26.710Z,98255.92
2019-05-16T15:27:53.359Z,98254.66
2019-05-16T15:30:21.618Z,98249.48
2019-05-16T15:32:48.561Z,98250.38
2019-05-16T15:35:18.117Z,98252.14
2019-05-16T15:37:47.972Z,98255.62
2019-05-16T15:40:13.602Z,98242.83
2019-05-16T15:42:40.335Z,98239.66
2019-05-16T15:45:07.615Z,98237.41
2019-05-16T15:47:37.159Z,98240.48
2019-05-16T15:50:03.422Z,98241.34
2019-05-16T15:52:30.604Z,98242.42
2019-05-16T15:54:57.279Z,98244.67
2019-05-16T15:57:23.807Z,98235.20
2019-05-16T15:59:50.265Z,98242.61
2019-05-16T16:02:17.607Z,98237.82
2019-05-16T16:04:44.501Z,98233.89
2019-05-16T16:07:10.990Z,98235.69
2019-05-16T16:09:38.104Z,98234.08
2019-05-16T16:12:08.091Z,98231.81
2019-05-16T16:14:33.286Z,98227.41
2019-05-16T16:16:59.804Z,98224.93
2019-05-16T16:19:26.697Z,98226.34
2019-05-16T16:21:53.168Z,98225.14
2019-05-16T16:24:19.893Z,98226.67
2019-05-16T16:26:47.025Z,98216.52
2019-05-16T16:29:13.798Z,98219.08
2019-05-16T16:31:40.292Z,98217.22
2019-05-16T16:34:07.538Z,98213.73
2019-05-16T16:36:36.629Z,98210.16
2019-05-16T16:39:07.334Z,98209.22
2019-05-16T16:41:33.046Z,98215.32
2019-05-16T16:43:59.772Z,98210.63
2019-05-16T16:46:27.081Z,98210.39
2019-05-16T16:48:53.644Z,98210.98
2019-05-16T16:51:20.158Z,98209.25
2019-05-16T16:53:46.953Z,98213.62
2019-05-16T16:56:13.631Z,98215.58
2019-05-16T16:58:40.096Z,98215.31
2019-05-16T17:01:07.522Z,98213.46
2019-05-16T17:03:36.341Z,98219.97
2019-05-16T17:06:03.448Z,98219.48
2019-05-16T17:08:31.008Z,98215.56
2019-05-16T17:10:57.712Z,98212.11
2019-05-16T17:13:24.176Z,98208.05
2019-05-16T17:15:50.630Z,98213.42
2019-05-16T17:18:17.640Z,98213.05
2019-05-16T17:20:44.137Z,98212.56
2019-05-16T17:23:10.995Z,98207.33
2019-05-16T17:25:37.639Z,98207.70
2019-05-16T17:28:06.726Z,98204.71
2019-05-16T17:30:33.097Z,98206.41
2019-05-16T17:32:59.856Z,98209.53
2019-05-16T17:35:26.850Z,98209.67
2019-05-16T17:37:53.532Z,98214.11
2019-05-16T17:40:20.613Z,98214.52
2019-05-16T17:42:47.988Z,98213.66
2019-05-16T17:45:17.763Z,98209.80
2019-05-16T17:47:43.843Z,98205.02
2019-05-16T17:50:11.386Z,98213.28
2019-05-16T17:52:37.989Z,98201.95
2019-05-16T17:55:07.237Z,98207.59
2019-05-16T17:57:34.300Z,98203.26
2019-05-16T18:00:02.343Z,98211.63
2019-05-16T18:02:28.830Z,98213.28
2019-05-16T18:04:56.733Z,98212.32
2019-05-16T18:07:23.317Z,98215.34
2019-05-16T18:09:49.878Z,98221.58
2019-05-16T18:12:17.543Z,98218.09
2019-05-16T18:14:46.727Z,98214.17
2019-05-16T18:17:12.639Z,98217.62
2019-05-16T18:19:40.581Z,98214.59
2019-05-16T18:22:07.118Z,98212.48
2019-05-16T18:24:33.618Z,98213.69
2019-05-16T18:27:00.310Z,98209.35
2019-05-16T18:29:27.018Z,98197.58
2019-05-16T18:31:53.680Z,98208.56
2019-05-16T18:34:20.203Z,98209.39
2019-05-16T18:36:47.007Z,98208.49
2019-05-16T18:39:13.656Z,98210.25
2019-05-16T18:41:41.265Z,98206.73
2019-05-16T18:44:07.790Z,98204.56
2019-05-16T18:46:36.335Z,98209.35
2019-05-16T18:49:03.030Z,98210.22
2019-05-16T18:51:29.624Z,98206.26
2019-05-16T18:53:57.021Z,98208.53
2019-05-16T18:56:23.585Z,98205.05
2019-05-16T18:58:50.666Z,98203.39
2019-05-16T19:01:17.745Z,98205.14
2019-05-16T19:03:46.433Z,98203.45
2019-05-16T19:06:13.086Z,98206.45
2019-05-16T19:08:39.706Z,98206.97
2019-05-16T19:11:07.534Z,98205.69
2019-05-16T19:13:36.746Z,98207.00
2019-05-16T19:16:02.794Z,98205.27
2019-05-16T19:18:29.323Z,98207.00
2019-05-16T19:20:57.069Z,98209.64
2019-05-16T19:23:24.065Z,98210.95
2019-05-16T19:25:50.687Z,98212.26
2019-05-16T19:28:17.229Z,98207.41
2019-05-16T19:30:43.824Z,98200.04
2019-05-16T19:33:10.422Z,98200.05
2019-05-16T19:35:37.261Z,98204.83
2019-05-16T19:38:06.462Z,98202.18
2019-05-16T19:40:32.520Z,98209.13
2019-05-16T19:42:59.419Z,98210.86
2019-05-16T19:45:26.486Z,98205.69
2019-05-16T19:47:53.116Z,98204.41
2019-05-16T19:50:20.227Z,98210.03
2019-05-16T19:52:48.224Z,98206.52
2019-05-16T19:55:15.156Z,98210.09
2019-05-16T19:57:41.654Z,98199.15
2019-05-16T20:00:09.075Z,98205.69
2019-05-16T20:02:36.812Z,98203.97
2019-05-16T20:05:04.350Z,98195.70
2019-05-16T20:07:30.974Z,98197.36
2019-05-16T20:09:57.591Z,98195.64
2019-05-16T20:12:26.182Z,98197.39
2019-05-16T20:15:06.836Z,98189.58
2019-05-16T20:17:21.411Z,98194.81
2019-05-16T20:19:47.904Z,98193.09
2019-05-16T20:22:16.550Z,98192.23
2019-05-16T20:24:43.253Z,98192.23
2019-05-16T20:27:09.876Z,98188.72
2019-05-16T20:29:36.832Z,98190.92
2019-05-16T20:32:04.710Z,98185.75
2019-05-16T20:34:31.565Z,98183.96
2019-05-16T20:36:59.213Z,98184.03
2019-05-16T20:39:26.793Z,98183.20
2019-05-16T20:41:53.409Z,98188.46
2019-05-16T20:44:19.943Z,98186.20
2019-05-16T20:46:46.767Z,98185.75
2019-05-16T20:49:16.773Z,98185.34
2019-05-16T20:51:43.355Z,98182.30
2019-05-16T20:54:09.970Z,98181.89
2019-05-16T20:56:36.529Z,98185.84
2019-05-16T20:59:03.146Z,98182.75
2019-05-16T21:01:30.849Z,98178.38
2019-05-16T21:03:57.415Z,98176.56
2019-05-16T21:06:26.333Z,98174.88
2019-05-16T21:08:53.500Z,98174.88
2019-05-16T21:11:21.342Z,98172.73
2019-05-16T21:13:49.042Z,98173.59
2019-05-16T21:16:16.396Z,98176.69
2019-05-16T21:18:43.218Z,98175.03
2019-05-16T21:21:09.748Z,98172.00
2019-05-16T21:23:36.869Z,98173.31
2019-05-16T21:26:03.478Z,98168.94
2019-05-16T21:28:31.364Z,98167.63
2019-05-16T21:30:57.894Z,98164.60
2019-05-16T21:33:24.433Z,98164.60
2019-05-16T21:35:51.031Z,98157.72
2019-05-16T21:38:17.966Z,98152.39
2019-05-16T21:40:44.640Z,98160.23
2019-05-16T21:43:11.163Z,98153.70
2019-05-16T21:45:37.837Z,98155.06
2019-05-16T21:48:04.443Z,98148.50
2019-05-16T21:50:31.157Z,98144.16
2019-05-16T21:52:58.164Z,98140.30
2019-05-16T21:55:30.008Z,98143.36
2019-05-16T21:57:57.413Z,98144.32
2019-05-16T22:00:30.698Z,98143.91
2019-05-16T22:02:57.396Z,98146.97
2019-05-16T22:05:24.066Z,98150.41
2019-05-16T22:07:50.727Z,98147.41
2019-05-16T22:10:17.453Z,98153.09
2019-05-16T22:12:44.042Z,98148.75
2019-05-16T22:15:10.681Z,98146.20
2019-05-16T22:17:37.394Z,98147.50
2019-05-16T22:20:04.229Z,98144.45
2019-05-16T22:22:30.940Z,98145.75
2019-05-16T22:24:57.613Z,98142.28
2019-05-16T22:27:24.790Z,98138.83
2019-05-16T22:29:52.986Z,98142.34
2019-05-16T22:32:19.662Z,98144.09
2019-05-16T22:34:47.614Z,98131.91
2019-05-16T22:37:14.296Z,98133.64
2019-05-16T22:39:40.970Z,98133.66
2019-05-16T22:42:09.351Z,98130.70
2019-05-16T22:44:37.184Z,98127.64
2019-05-16T22:47:06.557Z,98125.47
2019-05-16T22:49:32.589Z,98130.19
2019-05-16T22:51:59.150Z,98128.95
2019-05-16T22:54:26.273Z,98127.61
2019-05-16T22:56:52.943Z,98122.77
2019-05-16T22:59:19.453Z,98111.86
2019-05-16T23:01:46.371Z,98114.92
2019-05-16T23:04:13.213Z,98114.48
2019-05-16T23:06:39.828Z,98116.20
2019-05-16T23:09:07.104Z,98120.53
2019-05-16T23:11:33.620Z,98108.36
2019-05-16T23:14:00.278Z,98113.68
2019-05-16T23:16:26.920Z,98109.79
2019-05-16T23:18:53.446Z,98108.92
2019-05-16T23:21:47.281Z,98109.85
2019-05-16T23:24:13.829Z,98107.72
2019-05-16T23:26:40.568Z,98107.30
2019-05-16T23:29:07.353Z,98103.37
2019-05-16T23:31:36.383Z,98102.94
2019-05-16T23:34:02.700Z,98108.52
2019-05-16T23:36:29.497Z,98099.40
2019-05-16T23:38:56.845Z,98095.54
2019-05-16T23:41:23.613Z,98083.75
2019-05-16T23:43:50.662Z,98086.77
2019-05-16T23:46:17.874Z,98089.36
2019-05-16T23:48:44.409Z,98080.69
2019-05-16T23:51:11.035Z,98076.77
2019-05-16T23:53:37.544Z,98075.97
2019-05-16T23:56:04.197Z,98069.02
2019-05-16T23:58:30.785Z,98073.42
